Time;durP1;ratioP1;P1;durP2;ratioP2;P2;SDS_P1;SDS_P2;PMS_P1;PMS_P2;Temp;Humidity;BMP_temperature;BMP_pressure;BME280_temperature;BME280_humidity;BME280_pressure;Samples;Min_cycle;Max_cycle;Signal;HPM_P1;HPM_P2
2023/02/24 00:01:23;;;;;;;8.23;5.40;;;4.50;99.90;;;;;;5075444;28;20542;-86
2023/02/24 00:03:57;;;;;;;16.50;4.40;;;4.50;99.90;;;;;;5076522;28;20170;-86
2023/02/24 00:06:24;;;;;;;10.57;5.60;;;4.50;99.90;;;;;;5076557;28;20202;-85
2023/02/24 00:08:50;;;;;;;13.00;4.53;;;4.50;99.90;;;;;;5074458;28;20247;-86
2023/02/24 00:11:20;;;;;;;8.60;4.03;;;4.50;99.90;;;;;;5076235;28;20203;-85
2023/02/24 00:13:46;;;;;;;16.00;6.03;;;4.60;99.90;;;;;;5076282;28;20632;-86
2023/02/24 00:16:16;;;;;;;14.83;5.13;;;4.60;99.90;;;;;;5075314;28;20245;-85
2023/02/24 00:18:44;;;;;;;7.87;4.87;;;4.60;99.90;;;;;;5076424;28;20163;-85
2023/02/24 00:21:13;;;;;;;4.57;3.20;;;4.60;99.90;;;;;;5076145;28;20186;-85
2023/02/24 00:23:41;;;;;;;8.73;5.13;;;4.60;99.90;;;;;;5076125;28;20176;-86
2023/02/24 00:26:08;;;;;;;8.17;4.63;;;4.60;99.90;;;;;;5076285;28;20641;-86
2023/02/24 00:28:34;;;;;;;12.67;5.10;;;4.70;99.90;;;;;;5074954;28;20207;-86
2023/02/24 00:31:22;;;;;;;11.13;5.07;;;4.70;99.90;;;;;;5075751;28;20270;-86
2023/02/24 00:46:25;;;;;;;11.90;5.57;;;4.80;99.90;;;;;;5288978;22;20330;-85
2023/02/24 00:48:53;;;;;;;9.80;4.23;;;4.80;99.90;;;;;;5055972;28;20302;-86
2023/02/24 00:51:25;;;;;;;20.97;4.73;;;4.80;99.90;;;;;;5037889;28;20283;-85
2023/02/24 00:53:57;;;;;;;12.13;6.20;;;4.80;99.90;;;;;;5055168;28;20184;-85
2023/02/24 00:56:27;;;;;;;10.97;4.73;;;4.90;99.90;;;;;;5055601;28;20239;-85
2023/02/24 00:58:54;;;;;;;5.67;4.20;;;4.90;99.90;;;;;;5055185;28;20186;-85
2023/02/24 01:01:23;;;;;;;8.50;4.70;;;4.90;99.90;;;;;;5055207;28;20180;-86
2023/02/24 01:03:50;;;;;;;8.07;5.33;;;4.90;99.90;;;;;;5055580;28;20226;-86
2023/02/24 01:06:21;;;;;;;9.67;5.90;;;5.00;99.90;;;;;;5055706;28;20168;-85
2023/02/24 01:08:48;;;;;;;9.27;4.57;;;5.00;99.90;;;;;;5055662;28;20195;-86
2023/02/24 01:14:12;;;;;;;10.57;5.20;;;5.00;99.90;;;;;;5077051;28;20199;-84
2023/02/24 01:16:40;;;;;;;11.40;5.47;;;5.00;99.90;;;;;;5080138;28;20180;-87
2023/02/24 01:19:06;;;;;;;8.47;3.27;;;5.00;99.90;;;;;;5054912;28;20176;-86
2023/02/24 01:21:32;;;;;;;8.23;4.47;;;4.90;99.90;;;;;;5055158;28;20633;-86
2023/02/24 01:23:58;;;;;;;6.43;4.17;;;4.90;99.90;;;;;;5053914;28;20236;-86
2023/02/24 01:26:25;;;;;;;5.83;3.30;;;4.90;99.90;;;;;;5054829;28;20176;-85
2023/02/24 01:28:52;;;;;;;14.10;5.17;;;4.90;99.90;;;;;;5054448;28;20208;-85
2023/02/24 01:31:19;;;;;;;6.80;4.37;;;4.90;99.90;;;;;;5055360;28;20207;-86
2023/02/24 01:33:49;;;;;;;16.17;4.90;;;4.90;99.90;;;;;;5070190;28;20180;-86
2023/02/24 01:36:18;;;;;;;10.80;4.37;;;4.90;99.90;;;;;;5054635;28;20732;-86
2023/02/24 01:38:45;;;;;;;11.70;4.43;;;4.90;99.90;;;;;;5070129;28;20623;-85
2023/02/24 01:41:15;;;;;;;13.40;5.83;;;4.90;99.90;;;;;;5054829;28;20726;-86
2023/02/24 01:44:10;;;;;;;8.37;4.10;;;4.90;99.90;;;;;;5054776;28;20224;-86
2023/02/24 01:46:40;;;;;;;10.60;4.10;;;4.90;99.90;;;;;;5055070;28;20223;-86
2023/02/24 01:49:19;;;;;;;9.10;4.63;;;4.90;99.90;;;;;;5054634;28;20250;-86
2023/02/24 01:51:53;;;;;;;14.23;4.67;;;4.90;99.90;;;;;;5070009;28;20194;-85
2023/02/24 01:54:22;;;;;;;6.87;4.23;;;5.00;99.90;;;;;;5054713;28;20168;-86
2023/02/24 01:56:50;;;;;;;9.10;4.30;;;5.00;99.90;;;;;;5069642;28;20187;-86
2023/02/24 01:59:16;;;;;;;9.67;4.90;;;5.00;99.90;;;;;;5054401;28;20238;-85
2023/02/24 02:01:44;;;;;;;7.27;4.00;;;5.00;99.90;;;;;;5052974;28;20237;-85
2023/02/24 02:04:38;;;;;;;8.97;5.00;;;5.00;99.90;;;;;;5054295;28;20613;-85
2023/02/24 02:07:08;;;;;;;10.87;4.30;;;5.00;99.90;;;;;;5054001;28;20175;-85
2023/02/24 02:09:35;;;;;;;9.20;4.37;;;5.00;99.90;;;;;;5053871;28;20511;-85
2023/02/24 02:12:00;;;;;;;8.43;4.30;;;5.00;99.90;;;;;;5053121;28;20208;-85
2023/02/24 02:14:27;;;;;;;8.63;4.47;;;5.00;99.90;;;;;;5053894;28;20649;-85
2023/02/24 02:17:25;;;;;;;5.70;3.73;;;5.00;99.90;;;;;;5053898;28;20176;-85
2023/02/24 02:20:14;;;;;;;7.50;3.23;;;5.00;99.90;;;;;;5030032;28;20199;-85
2023/02/24 02:23:18;;;;;;;13.97;4.57;;;5.10;99.90;;;;;;5054126;28;20190;-85
2023/02/24 02:26:01;;;;;;;9.47;4.50;;;5.10;99.90;;;;;;5070110;28;20187;-84
2023/02/24 02:28:46;;;;;;;9.40;4.30;;;5.00;99.90;;;;;;5070491;28;20218;-85
2023/02/24 02:31:19;;;;;;;5.70;3.53;;;5.00;99.90;;;;;;5053985;28;20179;-85
2023/02/24 02:34:07;;;;;;;7.60;4.20;;;5.10;99.90;;;;;;5053972;28;20168;-86
2023/02/24 02:36:57;;;;;;;10.43;4.50;;;5.10;99.90;;;;;;5054310;28;20156;-86
2023/02/24 02:39:49;;;;;;;14.30;5.47;;;5.10;99.90;;;;;;5054248;28;20164;-86
2023/02/24 02:42:39;;;;;;;5.43;4.07;;;5.10;99.90;;;;;;5051053;28;20184;-85
2023/02/24 02:45:16;;;;;;;11.83;5.20;;;5.10;99.90;;;;;;5054349;28;20227;-85
2023/02/24 02:47:53;;;;;;;10.60;4.10;;;5.10;99.90;;;;;;5054905;28;20196;-85
2023/02/24 02:50:28;;;;;;;16.63;4.67;;;5.10;99.90;;;;;;5054770;28;20250;-86
2023/02/24 02:53:01;;;;;;;9.57;5.10;;;5.10;99.90;;;;;;5054470;28;20183;-86
2023/02/24 02:55:58;;;;;;;11.23;4.30;;;5.20;99.90;;;;;;5055240;28;20270;-85
2023/02/24 02:58:29;;;;;;;9.83;3.80;;;5.20;99.90;;;;;;5056218;28;20180;-87
2023/02/24 03:01:02;;;;;;;7.90;4.63;;;5.20;99.90;;;;;;5056293;28;20175;-88
2023/02/24 03:03:45;;;;;;;13.70;4.80;;;5.20;99.90;;;;;;5060007;28;20164;-87
2023/02/24 03:06:22;;;;;;;8.13;5.30;;;5.20;99.90;;;;;;5054614;28;20164;-87
2023/02/24 03:08:56;;;;;;;5.17;3.93;;;5.20;99.90;;;;;;5070370;28;20211;-86
2023/02/24 03:11:22;;;;;;;12.90;5.73;;;5.20;99.90;;;;;;5093249;28;20227;-85
2023/02/24 03:13:50;;;;;;;6.43;3.80;;;5.20;99.90;;;;;;5077414;28;20175;-85
2023/02/24 03:16:18;;;;;;;9.10;4.80;;;5.20;99.90;;;;;;5062377;28;20607;-86
2023/02/24 03:18:52;;;;;;;9.93;4.40;;;5.30;99.90;;;;;;5079254;28;20252;-85
2023/02/24 03:21:28;;;;;;;6.40;4.67;;;5.30;99.90;;;;;;5073600;28;20155;-85
2023/02/24 03:23:54;;;;;;;8.03;4.57;;;5.30;99.90;;;;;;5074250;28;20163;-89
2023/02/24 03:26:40;;;;;;;9.87;5.00;;;5.30;99.90;;;;;;5080875;28;20179;-87
2023/02/24 03:29:16;;;;;;;7.10;4.20;;;5.30;99.90;;;;;;5073736;28;20581;-86
2023/02/24 03:31:54;;;;;;;7.40;4.00;;;5.40;99.90;;;;;;5058501;28;20170;-86
2023/02/24 03:34:54;;;;;;;13.90;5.57;;;5.50;99.90;;;;;;5056263;28;20209;-87
2023/02/24 03:37:26;;;;;;;5.93;4.40;;;5.60;99.90;;;;;;5055957;28;20207;-86
2023/02/24 03:39:55;;;;;;;7.30;3.83;;;5.60;99.90;;;;;;5056126;28;20631;-86
2023/02/24 03:42:22;;;;;;;12.90;4.50;;;5.60;99.90;;;;;;5072580;28;20203;-86
2023/02/24 03:44:48;;;;;;;9.77;4.80;;;5.60;99.90;;;;;;5072097;28;20179;-86
2023/02/24 03:47:16;;;;;;;11.83;5.20;;;5.60;99.90;;;;;;5056854;28;20172;-87
2023/02/24 03:49:42;;;;;;;12.40;4.10;;;5.70;99.90;;;;;;5072661;28;20249;-87
2023/02/24 03:52:31;;;;;;;12.60;5.17;;;5.70;99.90;;;;;;5056610;28;20180;-87
2023/02/24 03:55:25;;;;;;;7.70;4.70;;;5.70;99.90;;;;;;5072137;28;20179;-86
2023/02/24 03:58:19;;;;;;;11.97;5.43;;;5.80;99.90;;;;;;5072361;28;20206;-87
2023/02/24 04:00:57;;;;;;;10.60;5.07;;;5.80;99.90;;;;;;5072122;28;20183;-88
2023/02/24 04:03:24;;;;;;;8.17;4.70;;;5.80;99.90;;;;;;5056655;28;20194;-87
2023/02/24 04:06:13;;;;;;;8.63;4.03;;;5.80;99.90;;;;;;5072384;28;20704;-87
2023/02/24 04:09:10;;;;;;;9.27;4.60;;;5.80;99.90;;;;;;5056711;28;20295;-87
2023/02/24 04:11:50;;;;;;;7.73;3.47;;;5.90;99.90;;;;;;5038658;28;20295;-86
2023/02/24 04:14:29;;;;;;;5.57;4.00;;;5.90;99.90;;;;;;5055915;28;20217;-86
2023/02/24 04:17:12;;;;;;;9.40;3.67;;;5.80;99.90;;;;;;5056128;28;20165;-86
2023/02/24 04:19:41;;;;;;;6.90;3.93;;;5.80;99.90;;;;;;5056507;28;20195;-86
2023/02/24 04:22:11;;;;;;;6.53;3.53;;;5.90;99.90;;;;;;5055654;28;20179;-86
2023/02/24 04:24:40;;;;;;;4.50;3.33;;;5.90;99.90;;;;;;5055925;28;20233;-86
2023/02/24 04:27:10;;;;;;;13.60;5.03;;;5.90;99.90;;;;;;5055744;28;20183;-86
2023/02/24 04:29:45;;;;;;;6.37;4.00;;;5.80;99.90;;;;;;5056491;28;20674;-85
2023/02/24 04:32:14;;;;;;;9.27;4.27;;;5.80;99.90;;;;;;5055670;28;20179;-85
2023/02/24 04:34:41;;;;;;;5.63;3.73;;;5.80;99.90;;;;;;5054446;28;20232;-86
2023/02/24 04:37:07;;;;;;;9.60;4.67;;;5.80;99.90;;;;;;5065847;28;20195;-84
2023/02/24 04:39:37;;;;;;;7.70;4.20;;;5.80;99.90;;;;;;5063868;28;20183;-85
2023/02/24 04:42:04;;;;;;;5.50;3.30;;;5.80;99.90;;;;;;5061718;28;20184;-85
2023/02/24 04:44:31;;;;;;;7.03;4.27;;;5.90;99.90;;;;;;5083459;28;20188;-84
2023/02/24 04:46:58;;;;;;;8.83;4.67;;;5.80;99.90;;;;;;5053249;28;20592;-84
2023/02/24 04:49:24;;;;;;;7.67;3.73;;;5.90;99.90;;;;;;5051821;28;20203;-85
2023/02/24 04:51:51;;;;;;;6.77;3.47;;;5.80;99.90;;;;;;5040150;28;20206;-88
2023/02/24 04:54:20;;;;;;;11.40;5.33;;;5.80;99.90;;;;;;5052133;28;20252;-86
2023/02/24 04:56:50;;;;;;;6.57;3.47;;;5.80;99.90;;;;;;5049192;28;20184;-88
2023/02/24 04:59:19;;;;;;;8.97;3.80;;;5.80;99.90;;;;;;5060860;28;20192;-86
2023/02/24 05:01:45;;;;;;;5.33;3.50;;;5.80;99.90;;;;;;5051195;28;20667;-86
2023/02/24 05:04:13;;;;;;;11.40;4.13;;;5.80;99.90;;;;;;5051970;28;20267;-87
2023/02/24 05:06:43;;;;;;;9.27;4.53;;;5.80;99.90;;;;;;5052814;28;20199;-85
2023/02/24 05:09:17;;;;;;;5.40;3.80;;;5.80;99.90;;;;;;5051728;28;20207;-87
2023/02/24 05:11:47;;;;;;;7.80;4.07;;;5.80;99.90;;;;;;5051371;28;20644;-86
2023/02/24 05:14:15;;;;;;;14.80;6.90;;;5.80;99.90;;;;;;5053311;28;20191;-86
2023/02/24 05:16:46;;;;;;;6.57;3.33;;;5.80;99.90;;;;;;5051834;28;20183;-85
2023/02/24 05:22:01;;;;;;;9.90;5.57;;;5.80;99.90;;;;;;5052556;28;20598;-86
2023/02/24 05:24:28;;;;;;;11.43;4.27;;;5.90;99.90;;;;;;5052378;28;20187;-86
2023/02/24 05:26:58;;;;;;;8.77;4.13;;;5.90;99.90;;;;;;5051207;28;20179;-86
2023/02/24 05:29:31;;;;;;;4.93;3.13;;;5.90;99.90;;;;;;5050507;28;20203;-86
2023/02/24 05:32:01;;;;;;;5.93;4.13;;;6.00;99.90;;;;;;5051531;28;20300;-85
2023/02/24 05:34:29;;;;;;;5.70;3.70;;;6.00;99.90;;;;;;5067850;28;20180;-86
2023/02/24 05:36:55;;;;;;;5.60;3.33;;;6.00;99.90;;;;;;5052082;28;20228;-86
2023/02/24 05:39:24;;;;;;;5.13;4.17;;;6.00;99.90;;;;;;5046246;28;20191;-85
2023/02/24 05:41:53;;;;;;;10.97;5.23;;;6.00;99.90;;;;;;5051171;28;20633;-85
2023/02/24 05:44:22;;;;;;;11.43;5.87;;;6.00;99.90;;;;;;5051742;28;20183;-86
2023/02/24 05:46:51;;;;;;;5.87;3.93;;;6.00;99.90;;;;;;5049790;28;20602;-86
2023/02/24 05:49:22;;;;;;;6.47;4.17;;;6.00;99.90;;;;;;5050759;28;20324;-87
2023/02/24 05:51:53;;;;;;;8.23;3.67;;;6.00;99.90;;;;;;5067616;28;20637;-86
2023/02/24 05:54:24;;;;;;;9.37;3.97;;;6.00;99.90;;;;;;5052483;28;20188;-86
2023/02/24 05:56:50;;;;;;;8.10;4.17;;;6.00;99.90;;;;;;5052398;28;20176;-85
2023/02/24 05:59:20;;;;;;;7.10;3.43;;;6.00;99.90;;;;;;5034267;28;20245;-85
2023/02/24 06:01:47;;;;;;;5.70;3.20;;;6.00;99.90;;;;;;5053638;28;20175;-85
2023/02/24 06:04:19;;;;;;;9.70;4.27;;;6.00;99.90;;;;;;5051158;28;20187;-85
2023/02/24 06:06:51;;;;;;;11.87;3.73;;;6.00;99.90;;;;;;5049740;28;20653;-85
2023/02/24 06:09:21;;;;;;;6.53;3.80;;;6.00;99.90;;;;;;5050238;28;20208;-87
2023/02/24 06:11:48;;;;;;;11.27;3.57;;;6.00;99.90;;;;;;5053015;28;20164;-84
2023/02/24 06:14:14;;;;;;;10.40;4.20;;;6.10;99.90;;;;;;5051612;28;20176;-84
2023/02/24 06:16:42;;;;;;;8.03;3.93;;;6.10;99.90;;;;;;5053119;28;20219;-84
2023/02/24 06:19:10;;;;;;;9.10;4.77;;;6.10;99.90;;;;;;5054071;28;20279;-84
2023/02/24 06:21:40;;;;;;;12.90;5.60;;;6.10;99.90;;;;;;5069104;28;20229;-84
2023/02/24 06:24:17;;;;;;;9.73;4.20;;;6.20;99.90;;;;;;5054386;28;20176;-84
2023/02/24 06:26:44;;;;;;;10.07;3.60;;;6.20;99.90;;;;;;5054054;28;20168;-84
2023/02/24 06:29:14;;;;;;;6.40;3.80;;;6.20;99.90;;;;;;5054073;28;20247;-84
2023/02/24 06:31:41;;;;;;;11.37;4.13;;;6.20;99.90;;;;;;5052290;28;20218;-84
2023/02/24 06:34:09;;;;;;;10.17;4.17;;;6.30;99.90;;;;;;5053881;28;20199;-84
2023/02/24 06:36:36;;;;;;;5.67;3.60;;;6.30;99.90;;;;;;5052392;28;20188;-85
2023/02/24 06:39:03;;;;;;;5.13;3.63;;;6.30;99.90;;;;;;5053379;28;20180;-84
2023/02/24 06:41:28;;;;;;;5.80;2.93;;;6.40;99.90;;;;;;5053045;28;20215;-84
2023/02/24 06:43:54;;;;;;;7.77;4.27;;;6.40;99.90;;;;;;5042769;28;20608;-84
2023/02/24 06:46:20;;;;;;;7.70;3.73;;;6.40;99.90;;;;;;5024036;28;20748;-86
2023/02/24 06:48:46;;;;;;;6.40;3.60;;;6.40;99.90;;;;;;5025449;28;20208;-85
2023/02/24 06:51:15;;;;;;;7.47;3.40;;;6.50;99.90;;;;;;5008041;28;20180;-85
2023/02/24 06:53:42;;;;;;;7.67;3.60;;;6.50;99.90;;;;;;5040344;28;20180;-85
2023/02/24 06:56:18;;;;;;;5.60;3.20;;;6.50;99.90;;;;;;5039132;28;20175;-86
2023/02/24 06:58:46;;;;;;;7.47;3.60;;;6.60;99.90;;;;;;5041379;28;20551;-85
2023/02/24 07:01:17;;;;;;;4.73;3.57;;;6.60;99.90;;;;;;5044408;28;20210;-84
2023/02/24 07:04:02;;;;;;;5.60;2.80;;;6.60;99.90;;;;;;5052097;28;20226;-85
2023/02/24 07:06:37;;;;;;;6.73;3.73;;;6.70;99.90;;;;;;5037126;28;20258;-85
2023/02/24 07:09:07;;;;;;;3.33;2.67;;;6.70;99.90;;;;;;5051388;28;20219;-85
2023/02/24 07:11:34;;;;;;;5.97;3.07;;;6.70;99.90;;;;;;5057077;28;20239;-82
2023/02/24 07:14:01;;;;;;;12.10;4.37;;;6.70;99.90;;;;;;5072114;28;20239;-84
2023/02/24 07:16:27;;;;;;;7.93;3.77;;;6.70;99.90;;;;;;5043697;28;20274;-86
2023/02/24 07:18:55;;;;;;;8.37;5.07;;;6.70;99.90;;;;;;5046472;28;20189;-84
2023/02/24 07:21:22;;;;;;;4.80;3.63;;;6.70;99.90;;;;;;5041205;28;20254;-85
2023/02/24 07:23:49;;;;;;;6.47;4.33;;;6.70;99.90;;;;;;5040427;28;20183;-86
2023/02/24 07:26:18;;;;;;;7.70;4.53;;;6.70;99.90;;;;;;5042710;28;20211;-85
2023/02/24 07:28:46;;;;;;;7.17;4.17;;;6.70;99.90;;;;;;5040718;28;20207;-85
2023/02/24 07:31:15;;;;;;;6.47;4.00;;;6.80;99.90;;;;;;5039954;28;20168;-84
2023/02/24 07:33:45;;;;;;;6.93;3.80;;;6.80;99.90;;;;;;5043777;28;20184;-85
2023/02/24 07:36:14;;;;;;;12.70;5.47;;;6.80;99.90;;;;;;5043679;28;20231;-85
2023/02/24 07:38:41;;;;;;;7.50;4.00;;;6.80;99.90;;;;;;5047262;28;20185;-85
2023/02/24 07:41:11;;;;;;;5.53;3.67;;;6.80;99.90;;;;;;5040201;28;20172;-85
2023/02/24 07:43:38;;;;;;;10.27;4.10;;;6.80;99.90;;;;;;5023597;28;20188;-85
2023/02/24 07:46:18;;;;;;;5.50;4.00;;;6.80;99.90;;;;;;5040313;28;20857;-85
2023/02/24 07:48:45;;;;;;;9.87;4.83;;;6.90;99.90;;;;;;5056832;28;20195;-85
2023/02/24 07:51:13;;;;;;;6.73;3.57;;;6.90;99.90;;;;;;5041073;28;20165;-85
2023/02/24 07:53:40;;;;;;;8.37;4.70;;;6.90;99.90;;;;;;5042703;28;20179;-85
2023/02/24 07:56:16;;;;;;;5.60;3.77;;;7.00;99.90;;;;;;5039648;28;20180;-85
2023/02/24 07:58:43;;;;;;;13.70;4.33;;;7.00;99.90;;;;;;5041206;28;20211;-85
2023/02/24 08:01:21;;;;;;;12.33;4.57;;;7.00;99.90;;;;;;5040647;28;20172;-85
2023/02/24 08:03:54;;;;;;;6.27;3.43;;;7.00;99.90;;;;;;5040609;28;20509;-85
2023/02/24 08:06:36;;;;;;;5.80;4.20;;;7.00;99.90;;;;;;5039927;28;20215;-85
2023/02/24 08:09:15;;;;;;;9.97;3.70;;;7.00;99.90;;;;;;5037869;28;20215;-85
2023/02/24 08:11:44;;;;;;;13.37;3.60;;;7.00;99.90;;;;;;5047098;28;20163;-85
2023/02/24 08:14:14;;;;;;;6.97;3.47;;;7.00;99.90;;;;;;5046718;28;20634;-88
2023/02/24 08:16:40;;;;;;;9.57;4.47;;;7.00;99.90;;;;;;5045301;28;20271;-85
2023/02/24 08:19:06;;;;;;;4.33;3.03;;;7.00;99.90;;;;;;5048404;28;20706;-85
2023/02/24 08:21:40;;;;;;;11.63;3.73;;;6.90;99.90;;;;;;5034583;28;20187;-85
2023/02/24 08:24:16;;;;;;;12.07;4.53;;;6.90;99.90;;;;;;5053807;28;20171;-85
2023/02/24 08:26:52;;;;;;;6.23;3.50;;;7.00;99.90;;;;;;5040984;28;20190;-85
2023/02/24 08:29:19;;;;;;;9.07;4.20;;;7.00;99.90;;;;;;5033650;28;20299;-85
2023/02/24 08:31:45;;;;;;;4.43;3.60;;;7.00;99.90;;;;;;5037398;28;20200;-85
2023/02/24 08:34:14;;;;;;;9.40;3.87;;;6.90;99.90;;;;;;5044297;28;20654;-85
2023/02/24 08:36:47;;;;;;;16.83;4.37;;;7.00;99.90;;;;;;5050421;28;20599;-85
2023/02/24 08:39:13;;;;;;;5.17;3.70;;;6.90;99.90;;;;;;5054242;28;20659;-84
2023/02/24 08:41:49;;;;;;;4.63;3.70;;;7.00;99.90;;;;;;5055331;28;20179;-86
2023/02/24 08:44:19;;;;;;;11.53;5.13;;;6.90;99.90;;;;;;5054333;28;20544;-85
2023/02/24 08:46:48;;;;;;;6.80;3.73;;;6.90;99.90;;;;;;5037606;28;20614;-85
2023/02/24 08:49:16;;;;;;;10.17;4.30;;;6.90;99.90;;;;;;5055534;28;20219;-85
2023/02/24 08:51:44;;;;;;;7.67;4.00;;;7.00;99.90;;;;;;5053794;28;20579;-85
2023/02/24 08:54:17;;;;;;;10.40;4.93;;;7.00;99.90;;;;;;5054004;28;20176;-85
2023/02/24 08:56:47;;;;;;;9.47;5.03;;;7.00;99.90;;;;;;5055775;28;20191;-87
2023/02/24 08:59:36;;;;;;;6.13;4.07;;;7.10;99.90;;;;;;5053881;28;20183;-86
2023/02/24 09:04:56;;;;;;;7.50;3.53;;;7.10;99.90;;;;;;5054986;28;20541;-86
2023/02/24 09:07:42;;;;;;;5.87;3.67;;;7.10;99.90;;;;;;5032063;28;20181;-85
2023/02/24 09:10:16;;;;;;;12.73;4.93;;;7.00;99.90;;;;;;5033215;28;20214;-85
2023/02/24 09:12:44;;;;;;;14.33;5.10;;;7.00;99.90;;;;;;5035016;28;20222;-85
2023/02/24 09:15:14;;;;;;;4.70;3.30;;;7.10;99.90;;;;;;5042402;28;20219;-84
2023/02/24 09:22:59;;;;;;;4.63;3.10;;;7.10;99.90;;;;;;5042649;28;20530;-84
2023/02/24 09:25:39;;;;;;;10.43;2.57;;;7.00;99.90;;;;;;5035402;28;20211;-84
2023/02/24 09:28:25;;;;;;;5.97;3.80;;;7.00;99.90;;;;;;5038717;28;20235;-84
2023/02/24 09:30:59;;;;;;;7.63;3.57;;;7.00;99.90;;;;;;5047926;28;20649;-85
2023/02/24 09:33:40;;;;;;;8.50;4.53;;;6.90;99.90;;;;;;5045811;28;20207;-85
2023/02/24 09:36:26;;;;;;;11.37;3.33;;;6.80;99.90;;;;;;5045686;28;20177;-84
2023/02/24 09:41:52;;;;;;;5.93;3.77;;;6.80;99.90;;;;;;5034935;28;20578;-84
2023/02/24 09:44:37;;;;;;;7.80;3.90;;;6.70;99.90;;;;;;5035292;28;20165;-84
2023/02/24 09:47:38;;;;;;;12.73;3.93;;;6.70;99.90;;;;;;5033479;28;20196;-84
2023/02/24 09:50:18;;;;;;;8.73;4.30;;;6.60;99.90;;;;;;5034600;28;20265;-84
2023/02/24 09:52:49;;;;;;;12.67;3.67;;;6.50;99.90;;;;;;5034279;28;20184;-84
2023/02/24 09:55:44;;;;;;;15.77;3.70;;;6.60;99.90;;;;;;5017442;28;20185;-84
2023/02/24 09:58:29;;;;;;;6.83;4.67;;;6.50;99.90;;;;;;5032752;28;20632;-84
2023/02/24 10:01:32;;;;;;;7.80;4.40;;;6.60;99.90;;;;;;5033833;28;20196;-84
2023/02/24 10:04:39;;;;;;;9.17;4.80;;;6.60;99.90;;;;;;5033897;28;20287;-84
2023/02/24 10:07:27;;;;;;;15.57;4.03;;;6.60;99.90;;;;;;5033061;28;20191;-83
2023/02/24 10:10:18;;;;;;;10.13;3.80;;;6.60;99.90;;;;;;5033810;28;20185;-85
2023/02/24 10:13:00;;;;;;;8.90;4.10;;;6.60;99.90;;;;;;5032775;28;20176;-84
2023/02/24 10:16:22;;;;;;;6.80;3.73;;;6.50;99.90;;;;;;5032642;28;20204;-84
2023/02/24 10:18:37;;;;;;;7.67;3.53;;;6.50;99.90;;;;;;5033110;28;20222;-85
2023/02/24 10:21:18;;;;;;;13.47;4.40;;;6.50;99.90;;;;;;5032022;28;20187;-85
2023/02/24 10:24:01;;;;;;;7.20;3.07;;;6.50;99.90;;;;;;5034155;28;20161;-85
2023/02/24 10:26:47;;;;;;;5.87;3.63;;;6.50;99.90;;;;;;5032126;28;20186;-84
2023/02/24 10:29:54;;;;;;;6.93;3.43;;;6.50;99.90;;;;;;5033437;28;20213;-85
2023/02/24 10:32:22;;;;;;;5.10;3.40;;;6.50;99.90;;;;;;5021234;28;20184;-85
2023/02/24 10:34:52;;;;;;;8.57;3.43;;;6.50;99.90;;;;;;5032598;28;20630;-85
2023/02/24 10:37:24;;;;;;;7.10;3.87;;;6.40;99.90;;;;;;5033013;28;20240;-85
2023/02/24 10:39:54;;;;;;;9.83;4.40;;;6.40;99.90;;;;;;5032147;28;20212;-84
2023/02/24 10:42:47;;;;;;;9.33;3.87;;;6.40;99.90;;;;;;5033018;28;20331;-84
2023/02/24 10:45:23;;;;;;;8.83;4.07;;;6.50;99.90;;;;;;5033060;28;20314;-84
2023/02/24 10:47:56;;;;;;;7.90;3.90;;;6.30;99.90;;;;;;5033375;28;20207;-84
2023/02/24 10:50:22;;;;;;;10.03;5.60;;;6.30;99.90;;;;;;5033541;28;20598;-83
2023/02/24 10:58:27;;;;;;;11.90;3.70;;;6.40;99.90;;;;;;5032784;28;20173;-83
2023/02/24 11:03:37;;;;;;;5.27;2.40;;;6.40;99.90;;;;;;5035144;28;20184;-85
2023/02/24 11:08:35;;;;;;;8.27;3.83;;;6.30;99.90;;;;;;5040226;28;20220;-83
2023/02/24 11:11:24;;;;;;;7.37;3.50;;;6.30;99.90;;;;;;5030809;28;20238;-84
2023/02/24 11:19:33;;;;;;;5.13;2.77;;;6.30;99.90;;;;;;5048692;28;20191;-86
2023/02/24 11:22:00;;;;;;;12.83;4.33;;;6.30;99.90;;;;;;5040913;28;20188;-85
2023/02/24 11:24:27;;;;;;;4.93;3.43;;;6.30;99.90;;;;;;5039526;28;20542;-85
2023/02/24 11:26:53;;;;;;;4.77;3.80;;;6.30;99.90;;;;;;5041056;28;20555;-85
2023/02/24 11:30:13;;;;;;;6.50;3.47;;;6.30;99.90;;;;;;5021956;28;20219;-85
2023/02/24 11:32:42;;;;;;;5.03;3.60;;;6.30;99.90;;;;;;5024194;28;20184;-85
2023/02/24 11:35:23;;;;;;;6.30;3.53;;;6.30;99.90;;;;;;5029975;28;20223;-85
2023/02/24 11:37:57;;;;;;;16.57;5.10;;;6.30;99.90;;;;;;5039180;28;20510;-85
2023/02/24 11:40:34;;;;;;;6.83;3.50;;;6.30;99.90;;;;;;5051173;28;20551;-84
2023/02/24 11:43:13;;;;;;;8.57;3.37;;;6.40;99.90;;;;;;5051838;28;20252;-83
2023/02/24 11:45:59;;;;;;;11.83;3.77;;;6.30;99.90;;;;;;5054017;28;20254;-86
2023/02/24 11:48:36;;;;;;;4.50;3.20;;;6.30;99.90;;;;;;5056413;28;20200;-83
2023/02/24 11:51:06;;;;;;;7.70;3.43;;;6.30;99.90;;;;;;5056798;28;20261;-84
2023/02/24 11:53:56;;;;;;;17.63;4.57;;;6.30;99.90;;;;;;5056688;28;20176;-84
2023/02/24 11:56:33;;;;;;;11.33;4.53;;;6.30;99.90;;;;;;5056447;28;20217;-85
2023/02/24 11:59:04;;;;;;;6.40;3.43;;;6.30;99.90;;;;;;5056669;28;20254;-84
2023/02/24 12:01:58;;;;;;;8.53;4.63;;;6.20;99.90;;;;;;5055013;28;20187;-84
2023/02/24 12:04:41;;;;;;;11.13;3.97;;;6.20;99.90;;;;;;5056333;28;20175;-84
2023/02/24 12:07:31;;;;;;;12.67;4.13;;;6.20;99.90;;;;;;5055100;28;20180;-84
2023/02/24 12:10:13;;;;;;;8.40;4.73;;;6.20;99.90;;;;;;5056497;28;20168;-84
2023/02/24 12:12:47;;;;;;;12.90;4.57;;;6.30;99.90;;;;;;5055382;28;20234;-83
2023/02/24 12:15:23;;;;;;;9.07;4.43;;;6.30;99.90;;;;;;5039089;28;20211;-84
2023/02/24 12:17:56;;;;;;;7.20;4.77;;;6.30;99.90;;;;;;5055369;28;20171;-83
2023/02/24 12:20:31;;;;;;;6.43;4.27;;;6.30;99.90;;;;;;5055951;28;20650;-83
2023/02/24 12:23:14;;;;;;;7.77;4.10;;;6.20;99.90;;;;;;5055459;28;20182;-83
2023/02/24 12:26:12;;;;;;;15.13;5.60;;;6.30;99.90;;;;;;5056600;28;20167;-84
2023/02/24 12:28:47;;;;;;;5.67;3.23;;;6.30;99.90;;;;;;5038687;28;20214;-84
2023/02/24 12:31:31;;;;;;;7.23;4.27;;;6.30;99.90;;;;;;5055904;28;20171;-85
2023/02/24 12:34:26;;;;;;;7.77;4.87;;;6.30;99.90;;;;;;5054784;28;20184;-84
2023/02/24 12:37:27;;;;;;;6.20;4.57;;;6.30;99.90;;;;;;5056511;28;20168;-84
2023/02/24 12:40:14;;;;;;;7.50;4.67;;;6.30;99.90;;;;;;5051288;28;20706;-84
2023/02/24 12:43:00;;;;;;;4.80;3.40;;;6.30;99.90;;;;;;5054782;28;20233;-83
2023/02/24 12:45:44;;;;;;;9.83;4.73;;;6.30;99.90;;;;;;5036403;28;20262;-84
2023/02/24 12:48:47;;;;;;;10.37;5.13;;;6.30;99.90;;;;;;5055463;28;20211;-83
2023/02/24 12:51:24;;;;;;;8.47;4.20;;;6.30;99.90;;;;;;5055186;28;20527;-82
2023/02/24 12:54:13;;;;;;;9.03;5.10;;;6.30;99.90;;;;;;5055629;28;20195;-84
2023/02/24 12:56:48;;;;;;;14.27;5.27;;;6.30;99.90;;;;;;5044310;28;20179;-85
2023/02/24 12:59:20;;;;;;;10.00;3.63;;;6.30;99.90;;;;;;5059158;28;20541;-83
2023/02/24 13:02:06;;;;;;;4.93;3.70;;;6.30;99.90;;;;;;5060068;28;20176;-84
2023/02/24 13:04:38;;;;;;;8.10;4.43;;;6.30;99.90;;;;;;5043131;28;20203;-83
2023/02/24 13:07:35;;;;;;;7.93;4.80;;;6.30;99.90;;;;;;5046104;28;20180;-84
2023/02/24 13:10:13;;;;;;;8.80;5.13;;;6.30;99.90;;;;;;5057414;28;20198;-84
2023/02/24 13:12:58;;;;;;;16.30;4.97;;;6.40;99.90;;;;;;5042363;28;20221;-84
2023/02/24 13:15:26;;;;;;;10.43;5.23;;;6.40;99.90;;;;;;5061318;28;20196;-85
2023/02/24 13:17:53;;;;;;;6.27;3.73;;;6.40;99.90;;;;;;5059485;28;20272;-84
2023/02/24 13:20:37;;;;;;;11.57;5.23;;;6.30;99.90;;;;;;5042602;28;20196;-84
2023/02/24 13:23:20;;;;;;;9.00;4.70;;;6.40;99.90;;;;;;5043393;28;20201;-84
2023/02/24 13:25:54;;;;;;;8.03;3.93;;;6.40;99.90;;;;;;5046653;28;20194;-83
2023/02/24 13:28:26;;;;;;;11.73;5.03;;;6.40;99.90;;;;;;5045334;28;20687;-85
2023/02/24 13:31:03;;;;;;;6.40;4.13;;;6.50;99.90;;;;;;5048307;28;20575;-84
2023/02/24 13:33:31;;;;;;;10.50;5.17;;;6.50;99.90;;;;;;5049061;28;20184;-83
2023/02/24 13:36:20;;;;;;;12.07;5.57;;;6.50;99.90;;;;;;5041765;28;20188;-83
2023/02/24 13:38:48;;;;;;;5.77;3.90;;;6.50;99.90;;;;;;5041357;28;20178;-83
2023/02/24 13:41:35;;;;;;;11.60;5.03;;;6.50;99.90;;;;;;5043314;28;20164;-83
2023/02/24 13:44:20;;;;;;;11.30;6.37;;;6.50;99.90;;;;;;5044839;28;20187;-83
2023/02/24 13:46:54;;;;;;;7.70;4.57;;;6.50;99.90;;;;;;5057554;28;20641;-84
2023/02/24 13:49:22;;;;;;;9.27;5.03;;;6.50;99.90;;;;;;5043249;28;20229;-83
2023/02/24 13:51:58;;;;;;;9.97;4.53;;;6.50;99.90;;;;;;5047123;28;20229;-84
2023/02/24 13:54:29;;;;;;;8.83;5.10;;;6.50;99.90;;;;;;5045983;28;20187;-84
2023/02/24 13:56:59;;;;;;;9.30;5.30;;;6.40;99.90;;;;;;5052709;28;20182;-83
2023/02/24 13:59:46;;;;;;;10.63;6.37;;;6.50;99.90;;;;;;5045549;28;20242;-84
2023/02/24 14:02:21;;;;;;;13.17;5.23;;;6.50;99.90;;;;;;5043841;28;20214;-84
2023/02/24 14:04:55;;;;;;;10.10;5.07;;;6.50;99.90;;;;;;5041706;28;20176;-86
2023/02/24 14:07:34;;;;;;;8.20;4.93;;;6.40;99.90;;;;;;5053939;28;20171;-84
2023/02/24 14:10:04;;;;;;;18.27;5.53;;;6.50;99.90;;;;;;5042851;28;20176;-84
2023/02/24 14:12:33;;;;;;;9.57;6.33;;;6.50;99.90;;;;;;5048967;28;20187;-85
2023/02/24 14:15:01;;;;;;;11.10;5.97;;;6.50;99.90;;;;;;5052058;28;20176;-84
2023/02/24 14:17:35;;;;;;;13.27;5.43;;;6.40;99.90;;;;;;5049667;28;20176;-85